sensor_id;sensor_type;location;lat;lon;timestamp;pressure;altitude;pressure_sealevel;temperature;humidity
45078;BME280;60508;42.622;25.416;2023-12-28T00:02:08;97862.16;;;7.20;56.09
45078;BME280;60508;42.622;25.416;2023-12-28T00:04:55;97856.34;;;7.17;56.28
45078;BME280;60508;42.622;25.416;2023-12-28T00:07:22;97860.16;;;7.29;55.97
45078;BME280;60508;42.622;25.416;2023-12-28T00:10:09;97867.59;;;7.34;55.92
45078;BME280;60508;42.622;25.416;2023-12-28T00:12:35;97870.16;;;7.48;55.33
45078;BME280;60508;42.622;25.416;2023-12-28T00:15:02;97873.34;;;7.65;55.02
45078;BME280;60508;42.622;25.416;2023-12-28T00:17:30;97873.97;;;7.67;54.80
45078;BME280;60508;42.622;25.416;2023-12-28T00:19:58;97883.78;;;7.60;54.93
45078;BME280;60508;42.622;25.416;2023-12-28T00:22:25;97893.63;;;7.53;54.64
45078;BME280;60508;42.622;25.416;2023-12-28T00:25:12;97906.38;;;7.51;54.85
45078;BME280;60508;42.622;25.416;2023-12-28T00:27:39;97905.22;;;7.67;54.10
45078;BME280;60508;42.622;25.416;2023-12-28T00:30:06;97912.41;;;7.31;55.21
45078;BME280;60508;42.622;25.416;2023-12-28T00:32:33;97911.09;;;7.21;56.34
45078;BME280;60508;42.622;25.416;2023-12-28T00:35:01;97909.22;;;6.93;57.23
45078;BME280;60508;42.622;25.416;2023-12-28T00:37:28;97903.38;;;6.83;57.88
45078;BME280;60508;42.622;25.416;2023-12-28T00:39:56;97913.59;;;7.01;56.92
45078;BME280;60508;42.622;25.416;2023-12-28T00:42:22;97906.19;;;6.96;56.94
45078;BME280;60508;42.622;25.416;2023-12-28T00:44:49;97908.25;;;7.01;57.05
45078;BME280;60508;42.622;25.416;2023-12-28T00:47:36;97914.78;;;7.20;55.86
45078;BME280;60508;42.622;25.416;2023-12-28T00:50:07;97910.28;;;7.20;55.53
45078;BME280;60508;42.622;25.416;2023-12-28T00:52:34;97913.09;;;6.90;56.25
45078;BME280;60508;42.622;25.416;2023-12-28T00:55:21;97914.94;;;6.90;56.28
45078;BME280;60508;42.622;25.416;2023-12-28T00:57:48;97919.03;;;6.64;57.10
45078;BME280;60508;42.622;25.416;2023-12-28T01:00:15;97921.25;;;6.82;56.42
45078;BME280;60508;42.622;25.416;2023-12-28T01:02:43;97926.34;;;6.77;56.09
45078;BME280;60508;42.622;25.416;2023-12-28T01:05:13;97928.03;;;6.63;56.15
45078;BME280;60508;42.622;25.416;2023-12-28T01:07:41;97928.88;;;6.64;56.54
45078;BME280;60508;42.622;25.416;2023-12-28T01:10:29;97926.91;;;6.94;55.58
45078;BME280;60508;42.622;25.416;2023-12-28T01:12:55;97920.84;;;7.07;55.31
45078;BME280;60508;42.622;25.416;2023-12-28T01:15:22;97925.63;;;7.11;55.05
45078;BME280;60508;42.622;25.416;2023-12-28T01:17:49;97917.88;;;7.23;54.70
45078;BME280;60508;42.622;25.416;2023-12-28T01:20:16;97907.94;;;7.39;54.20
45078;BME280;60508;42.622;25.416;2023-12-28T01:22:43;97912.84;;;7.35;53.78
45078;BME280;60508;42.622;25.416;2023-12-28T01:25:10;97910.22;;;7.42;53.78
45078;BME280;60508;42.622;25.416;2023-12-28T01:27:37;97903.72;;;7.51;53.53
45078;BME280;60508;42.622;25.416;2023-12-28T01:30:05;97908.94;;;7.66;53.20
45078;BME280;60508;42.622;25.416;2023-12-28T01:32:32;97907.97;;;7.45;53.71
45078;BME280;60508;42.622;25.416;2023-12-28T01:34:59;97909.16;;;7.08;54.37
45078;BME280;60508;42.622;25.416;2023-12-28T01:37:46;97914.06;;;6.83;54.59
45078;BME280;60508;42.622;25.416;2023-12-28T01:40:15;97910.63;;;6.67;54.58
45078;BME280;60508;42.622;25.416;2023-12-28T01:42:42;97904.06;;;6.27;56.30
45078;BME280;60508;42.622;25.416;2023-12-28T01:45:09;97902.97;;;6.06;56.70
45078;BME280;60508;42.622;25.416;2023-12-28T01:47:57;97909.75;;;6.24;56.35
45078;BME280;60508;42.622;25.416;2023-12-28T01:50:26;97911.28;;;6.33;55.92
45078;BME280;60508;42.622;25.416;2023-12-28T01:52:55;97910.25;;;6.12;56.45
45078;BME280;60508;42.622;25.416;2023-12-28T01:55:42;97910.34;;;6.04;57.00
45078;BME280;60508;42.622;25.416;2023-12-28T01:58:09;97908.75;;;6.10;57.03
45078;BME280;60508;42.622;25.416;2023-12-28T02:00:36;97906.03;;;6.03;57.55
45078;BME280;60508;42.622;25.416;2023-12-28T02:03:06;97907.09;;;6.24;57.27
45078;BME280;60508;42.622;25.416;2023-12-28T02:05:33;97917.00;;;6.30;56.57
45078;BME280;60508;42.622;25.416;2023-12-28T02:08:20;97909.78;;;6.09;57.04
45078;BME280;60508;42.622;25.416;2023-12-28T02:10:47;97919.09;;;5.98;56.50
45078;BME280;60508;42.622;25.416;2023-12-28T02:13:14;97911.56;;;5.72;57.29
45078;BME280;60508;42.622;25.416;2023-12-28T02:15:42;97915.03;;;5.87;57.26
45078;BME280;60508;42.622;25.416;2023-12-28T02:18:20;97917.84;;;5.41;59.07
45078;BME280;60508;42.622;25.416;2023-12-28T02:20:48;97917.25;;;5.69;58.16
45078;BME280;60508;42.622;25.416;2023-12-28T02:23:16;97910.88;;;5.70;58.55
45078;BME280;60508;42.622;25.416;2023-12-28T02:25:43;97910.59;;;5.79;57.61
45078;BME280;60508;42.622;25.416;2023-12-28T02:28:10;97907.22;;;6.00;57.06
45078;BME280;60508;42.622;25.416;2023-12-28T02:30:37;97907.09;;;6.09;56.59
45078;BME280;60508;42.622;25.416;2023-12-28T02:33:22;97917.94;;;6.22;55.68
45078;BME280;60508;42.622;25.416;2023-12-28T02:35:52;97922.81;;;6.33;55.44
45078;BME280;60508;42.622;25.416;2023-12-28T02:38:23;97924.28;;;6.21;55.98
45078;BME280;60508;42.622;25.416;2023-12-28T02:40:51;97925.34;;;6.05;56.17
45078;BME280;60508;42.622;25.416;2023-12-28T02:43:18;97927.97;;;6.20;55.84
45078;BME280;60508;42.622;25.416;2023-12-28T02:45:45;97924.97;;;6.08;56.18
45078;BME280;60508;42.622;25.416;2023-12-28T02:48:12;97923.22;;;6.15;55.87
45078;BME280;60508;42.622;25.416;2023-12-28T02:50:39;97917.50;;;6.03;56.39
45078;BME280;60508;42.622;25.416;2023-12-28T02:53:06;97926.59;;;6.24;56.05
45078;BME280;60508;42.622;25.416;2023-12-28T02:55:53;97918.22;;;6.27;56.25
45078;BME280;60508;42.622;25.416;2023-12-28T02:58:20;97917.91;;;6.37;55.98
45078;BME280;60508;42.622;25.416;2023-12-28T03:00:47;97924.03;;;6.52;55.47
45078;BME280;60508;42.622;25.416;2023-12-28T03:03:16;97916.72;;;6.61;55.64
45078;BME280;60508;42.622;25.416;2023-12-28T03:05:43;97915.63;;;6.55;55.62
45078;BME280;60508;42.622;25.416;2023-12-28T03:08:09;97906.09;;;6.46;56.04
45078;BME280;60508;42.622;25.416;2023-12-28T03:10:36;97911.88;;;6.50;55.80
45078;BME280;60508;42.622;25.416;2023-12-28T03:13:03;97910.97;;;6.43;55.82
45078;BME280;60508;42.622;25.416;2023-12-28T03:15:50;97912.69;;;6.29;55.89
45078;BME280;60508;42.622;25.416;2023-12-28T03:18:16;97910.44;;;6.11;56.15
45078;BME280;60508;42.622;25.416;2023-12-28T03:20:44;97913.19;;;5.73;57.19
45078;BME280;60508;42.622;25.416;2023-12-28T03:23:31;97905.91;;;5.66;57.98
45078;BME280;60508;42.622;25.416;2023-12-28T03:26:00;97912.06;;;5.37;58.98
45078;BME280;60508;42.622;25.416;2023-12-28T03:28:27;97906.09;;;5.35;59.67
45078;BME280;60508;42.622;25.416;2023-12-28T03:30:54;97912.53;;;5.41;59.37
45078;BME280;60508;42.622;25.416;2023-12-28T03:33:42;97906.09;;;4.97;61.36
45078;BME280;60508;42.622;25.416;2023-12-28T03:36:17;97904.38;;;4.89;62.42
45078;BME280;60508;42.622;25.416;2023-12-28T03:39:05;97906.00;;;5.14;61.88
45078;BME280;60508;42.622;25.416;2023-12-28T03:41:32;97902.50;;;5.28;60.76
45078;BME280;60508;42.622;25.416;2023-12-28T03:43:59;97908.94;;;5.19;61.12
45078;BME280;60508;42.622;25.416;2023-12-28T03:46:50;97910.03;;;4.86;62.75
45078;BME280;60508;42.622;25.416;2023-12-28T03:49:20;97903.41;;;4.82;62.72
45078;BME280;60508;42.622;25.416;2023-12-28T03:51:50;97913.59;;;4.79;63.00
45078;BME280;60508;42.622;25.416;2023-12-28T03:54:17;97916.63;;;4.75;62.74
45078;BME280;60508;42.622;25.416;2023-12-28T03:56:46;97915.63;;;4.77;62.67
45078;BME280;60508;42.622;25.416;2023-12-28T03:59:13;97914.00;;;4.90;61.81
45078;BME280;60508;42.622;25.416;2023-12-28T04:01:41;97914.78;;;4.99;61.34
45078;BME280;60508;42.622;25.416;2023-12-28T04:04:08;97912.22;;;5.21;60.47
45078;BME280;60508;42.622;25.416;2023-12-28T04:06:35;97915.50;;;5.46;59.30
45078;BME280;60508;42.622;25.416;2023-12-28T04:09:21;97917.34;;;5.75;58.07
45078;BME280;60508;42.622;25.416;2023-12-28T04:11:48;97914.09;;;5.95;56.92
45078;BME280;60508;42.622;25.416;2023-12-28T04:14:35;97908.06;;;6.01;56.90
45078;BME280;60508;42.622;25.416;2023-12-28T04:17:02;97913.72;;;6.13;56.18
45078;BME280;60508;42.622;25.416;2023-12-28T04:19:30;97914.56;;;6.13;56.20
45078;BME280;60508;42.622;25.416;2023-12-28T04:22:17;97915.69;;;6.04;56.16
45078;BME280;60508;42.622;25.416;2023-12-28T04:24:44;97928.00;;;5.75;57.41
45078;BME280;60508;42.622;25.416;2023-12-28T04:27:10;97918.53;;;5.43;58.65
45078;BME280;60508;42.622;25.416;2023-12-28T04:29:37;97922.19;;;5.27;59.29
45078;BME280;60508;42.622;25.416;2023-12-28T04:32:04;97923.59;;;5.15;60.07
45078;BME280;60508;42.622;25.416;2023-12-28T04:34:31;97923.91;;;4.82;60.63
45078;BME280;60508;42.622;25.416;2023-12-28T04:36:58;97932.25;;;4.55;62.12
45078;BME280;60508;42.622;25.416;2023-12-28T04:39:45;97932.72;;;4.28;63.08
45078;BME280;60508;42.622;25.416;2023-12-28T04:42:12;97932.75;;;4.19;63.01
45078;BME280;60508;42.622;25.416;2023-12-28T04:44:59;97939.31;;;4.09;63.63
45078;BME280;60508;42.622;25.416;2023-12-28T04:47:26;97929.50;;;4.09;64.10
45078;BME280;60508;42.622;25.416;2023-12-28T04:49:53;97933.31;;;4.07;64.21
45078;BME280;60508;42.622;25.416;2023-12-28T04:52:19;97935.97;;;4.07;64.38
45078;BME280;60508;42.622;25.416;2023-12-28T04:54:46;97933.38;;;3.98;64.73
45078;BME280;60508;42.622;25.416;2023-12-28T04:57:13;97936.63;;;4.17;64.41
45078;BME280;60508;42.622;25.416;2023-12-28T04:59:40;97937.25;;;4.19;64.45
45078;BME280;60508;42.622;25.416;2023-12-28T05:02:07;97935.63;;;4.10;64.89
45078;BME280;60508;42.622;25.416;2023-12-28T05:04:36;97928.59;;;4.25;64.69
45078;BME280;60508;42.622;25.416;2023-12-28T05:07:25;97922.69;;;4.38;63.89
45078;BME280;60508;42.622;25.416;2023-12-28T05:09:52;97937.28;;;4.42;63.33
45078;BME280;60508;42.622;25.416;2023-12-28T05:12:38;97939.16;;;4.65;62.95
45078;BME280;60508;42.622;25.416;2023-12-28T05:15:05;97937.44;;;4.95;62.29
45078;BME280;60508;42.622;25.416;2023-12-28T05:17:32;97928.63;;;4.94;61.69
45078;BME280;60508;42.622;25.416;2023-12-28T05:19:59;97929.41;;;5.18;61.14
45078;BME280;60508;42.622;25.416;2023-12-28T05:22:26;97934.06;;;5.01;60.86
45078;BME280;60508;42.622;25.416;2023-12-28T05:24:52;97931.78;;;4.75;62.03
45078;BME280;60508;42.622;25.416;2023-12-28T05:27:20;97932.00;;;4.88;61.55
45078;BME280;60508;42.622;25.416;2023-12-28T05:30:07;97930.25;;;4.96;61.67
45078;BME280;60508;42.622;25.416;2023-12-28T05:32:35;97934.41;;;4.98;60.96
45078;BME280;60508;42.622;25.416;2023-12-28T05:35:22;97939.28;;;4.94;61.24
45078;BME280;60508;42.622;25.416;2023-12-28T05:37:49;97926.50;;;4.67;61.88
45078;BME280;60508;42.622;25.416;2023-12-28T05:40:16;97927.22;;;4.61;62.57
45078;BME280;60508;42.622;25.416;2023-12-28T05:42:43;97927.69;;;4.64;62.47
45078;BME280;60508;42.622;25.416;2023-12-28T05:45:10;97930.69;;;4.84;61.90
45078;BME280;60508;42.622;25.416;2023-12-28T05:47:36;97932.84;;;4.66;61.53
45078;BME280;60508;42.622;25.416;2023-12-28T05:50:03;97937.47;;;4.41;63.06
45078;BME280;60508;42.622;25.416;2023-12-28T05:52:49;97930.91;;;4.28;63.62
45078;BME280;60508;42.622;25.416;2023-12-28T05:55:16;97933.91;;;3.86;65.27
45078;BME280;60508;42.622;25.416;2023-12-28T05:57:43;97944.47;;;4.02;65.11
45078;BME280;60508;42.622;25.416;2023-12-28T06:00:30;97945.28;;;4.11;65.40
45078;BME280;60508;42.622;25.416;2023-12-28T06:02:57;97951.69;;;4.25;64.63
45078;BME280;60508;42.622;25.416;2023-12-28T06:05:23;97942.91;;;4.47;63.70
45078;BME280;60508;42.622;25.416;2023-12-28T06:08:11;97927.03;;;4.85;62.11
45078;BME280;60508;42.622;25.416;2023-12-28T06:10:42;97930.69;;;4.84;61.45
45078;BME280;60508;42.622;25.416;2023-12-28T06:13:09;97942.03;;;4.55;63.01
45078;BME280;60508;42.622;25.416;2023-12-28T06:15:36;97941.69;;;4.35;63.68
45078;BME280;60508;42.622;25.416;2023-12-28T06:18:22;97942.53;;;4.27;63.63
45078;BME280;60508;42.622;25.416;2023-12-28T06:20:49;97946.91;;;4.51;63.18
45078;BME280;60508;42.622;25.416;2023-12-28T06:23:16;97948.03;;;4.57;62.59
45078;BME280;60508;42.622;25.416;2023-12-28T06:25:42;97955.97;;;4.65;62.24
45078;BME280;60508;42.622;25.416;2023-12-28T06:28:29;97950.56;;;4.97;62.25
45078;BME280;60508;42.622;25.416;2023-12-28T06:30:57;97957.75;;;5.34;60.96
45078;BME280;60508;42.622;25.416;2023-12-28T06:33:27;97951.63;;;5.63;59.92
45078;BME280;60508;42.622;25.416;2023-12-28T06:35:55;97954.28;;;5.93;58.88
45078;BME280;60508;42.622;25.416;2023-12-28T06:38:24;97950.09;;;6.14;57.92
45078;BME280;60508;42.622;25.416;2023-12-28T06:40:52;97954.47;;;6.21;57.63
45078;BME280;60508;42.622;25.416;2023-12-28T06:43:19;97955.84;;;6.32;57.26
45078;BME280;60508;42.622;25.416;2023-12-28T06:45:45;97960.91;;;6.27;57.39
45078;BME280;60508;42.622;25.416;2023-12-28T06:48:32;97959.28;;;6.63;56.33
45078;BME280;60508;42.622;25.416;2023-12-28T06:50:59;97967.22;;;6.78;55.36
45078;BME280;60508;42.622;25.416;2023-12-28T06:53:46;97960.63;;;6.73;55.52
45078;BME280;60508;42.622;25.416;2023-12-28T06:56:20;97964.50;;;6.71;55.59
45078;BME280;60508;42.622;25.416;2023-12-28T06:58:46;97964.13;;;6.95;54.77
45078;BME280;60508;42.622;25.416;2023-12-28T07:01:13;97957.94;;;7.17;53.86
45078;BME280;60508;42.622;25.416;2023-12-28T07:03:40;97967.44;;;7.47;52.82
45078;BME280;60508;42.622;25.416;2023-12-28T07:06:27;97957.34;;;7.78;51.67
45078;BME280;60508;42.622;25.416;2023-12-28T07:08:54;97961.75;;;7.92;51.63
45078;BME280;60508;42.622;25.416;2023-12-28T07:11:20;97967.84;;;8.08;50.99
45078;BME280;60508;42.622;25.416;2023-12-28T07:14:07;97964.19;;;8.22;50.05
45078;BME280;60508;42.622;25.416;2023-12-28T07:16:34;97964.47;;;8.40;49.59
45078;BME280;60508;42.622;25.416;2023-12-28T07:19:01;97962.06;;;8.52;49.95
45078;BME280;60508;42.622;25.416;2023-12-28T07:21:27;97961.06;;;8.60;49.06
45078;BME280;60508;42.622;25.416;2023-12-28T07:23:54;97961.28;;;8.72;48.90
45078;BME280;60508;42.622;25.416;2023-12-28T07:26:21;97962.75;;;8.74;48.58
45078;BME280;60508;42.622;25.416;2023-12-28T07:28:48;97965.47;;;8.94;48.14
45078;BME280;60508;42.622;25.416;2023-12-28T07:31:35;97958.63;;;8.72;49.11
45078;BME280;60508;42.622;25.416;2023-12-28T07:34:13;97957.59;;;8.73;48.89
45078;BME280;60508;42.622;25.416;2023-12-28T07:37:00;97958.81;;;8.70;48.69
45078;BME280;60508;42.622;25.416;2023-12-28T07:39:28;97956.13;;;8.70;48.56
45078;BME280;60508;42.622;25.416;2023-12-28T07:42:15;97963.38;;;8.83;48.85
45078;BME280;60508;42.622;25.416;2023-12-28T07:44:42;97956.00;;;8.99;48.16
45078;BME280;60508;42.622;25.416;2023-12-28T07:47:10;97958.00;;;8.83;48.93
45078;BME280;60508;42.622;25.416;2023-12-28T07:49:38;97970.22;;;8.99;48.27
45078;BME280;60508;42.622;25.416;2023-12-28T07:52:05;97960.94;;;8.88;48.25
45078;BME280;60508;42.622;25.416;2023-12-28T07:54:51;97965.25;;;8.83;48.69
45078;BME280;60508;42.622;25.416;2023-12-28T07:57:18;97965.66;;;8.86;48.27
45078;BME280;60508;42.622;25.416;2023-12-28T08:00:05;97978.66;;;8.96;46.44
45078;BME280;60508;42.622;25.416;2023-12-28T08:02:33;97970.66;;;9.16;46.66
45078;BME280;60508;42.622;25.416;2023-12-28T08:05:20;97968.59;;;9.18;46.46
45078;BME280;60508;42.622;25.416;2023-12-28T08:07:47;97971.91;;;9.34;46.08
45078;BME280;60508;42.622;25.416;2023-12-28T08:10:14;97972.53;;;9.49;46.71
45078;BME280;60508;42.622;25.416;2023-12-28T08:12:41;97970.03;;;9.47;46.45
45078;BME280;60508;42.622;25.416;2023-12-28T08:15:29;97981.78;;;9.93;45.43
45078;BME280;60508;42.622;25.416;2023-12-28T08:17:56;97970.56;;;10.16;45.02
45078;BME280;60508;42.622;25.416;2023-12-28T08:20:22;97970.50;;;10.36;44.68
45078;BME280;60508;42.622;25.416;2023-12-28T08:23:09;97969.28;;;10.39;44.66
45078;BME280;60508;42.622;25.416;2023-12-28T08:25:55;97977.09;;;10.47;43.79
45078;BME280;60508;42.622;25.416;2023-12-28T08:28:22;97973.16;;;10.50;43.60
45078;BME280;60508;42.622;25.416;2023-12-28T08:30:50;97972.09;;;10.51;43.66
45078;BME280;60508;42.622;25.416;2023-12-28T08:33:16;97972.28;;;10.63;43.75
45078;BME280;60508;42.622;25.416;2023-12-28T08:35:44;97967.81;;;10.82;43.27
45078;BME280;60508;42.622;25.416;2023-12-28T08:38:12;97960.13;;;10.92;42.93
45078;BME280;60508;42.622;25.416;2023-12-28T08:40:59;97959.31;;;11.17;42.42
45078;BME280;60508;42.622;25.416;2023-12-28T08:43:26;97958.19;;;11.31;41.55
45078;BME280;60508;42.622;25.416;2023-12-28T08:45:53;97967.19;;;11.43;41.90
45078;BME280;60508;42.622;25.416;2023-12-28T08:48:20;97960.38;;;11.41;41.54
45078;BME280;60508;42.622;25.416;2023-12-28T08:51:09;97947.03;;;11.52;41.15
45078;BME280;60508;42.622;25.416;2023-12-28T08:53:36;97952.97;;;11.61;41.22
45078;BME280;60508;42.622;25.416;2023-12-28T08:56:16;97939.63;;;11.92;40.58
45078;BME280;60508;42.622;25.416;2023-12-28T08:58:46;97938.53;;;11.99;40.35
45078;BME280;60508;42.622;25.416;2023-12-28T09:01:21;97931.44;;;12.05;40.72
45078;BME280;60508;42.622;25.416;2023-12-28T09:03:52;97932.75;;;12.14;40.82
45078;BME280;60508;42.622;25.416;2023-12-28T09:06:38;97929.31;;;12.26;40.82
45078;BME280;60508;42.622;25.416;2023-12-28T09:09:05;97928.97;;;12.52;41.01
45078;BME280;60508;42.622;25.416;2023-12-28T09:11:32;97921.25;;;12.56;40.97
45078;BME280;60508;42.622;25.416;2023-12-28T09:14:19;97912.38;;;12.67;40.47
45078;BME280;60508;42.622;25.416;2023-12-28T09:16:47;97913.50;;;12.78;39.94
45078;BME280;60508;42.622;25.416;2023-12-28T09:19:13;97902.84;;;12.95;39.93
45078;BME280;60508;42.622;25.416;2023-12-28T09:22:00;97903.63;;;13.26;38.90
45078;BME280;60508;42.622;25.416;2023-12-28T09:24:27;97896.84;;;13.35;39.17
45078;BME280;60508;42.622;25.416;2023-12-28T09:26:53;97890.75;;;13.51;39.20
45078;BME280;60508;42.622;25.416;2023-12-28T09:29:40;97890.19;;;13.61;38.78
45078;BME280;60508;42.622;25.416;2023-12-28T09:32:07;97887.09;;;13.81;38.63
45078;BME280;60508;42.622;25.416;2023-12-28T09:34:34;97882.28;;;13.83;38.77
45078;BME280;60508;42.622;25.416;2023-12-28T09:37:21;97888.44;;;14.07;39.64
45078;BME280;60508;42.622;25.416;2023-12-28T09:39:50;97875.19;;;14.06;39.43
45078;BME280;60508;42.622;25.416;2023-12-28T09:42:20;97876.75;;;14.31;39.15
45078;BME280;60508;42.622;25.416;2023-12-28T09:44:51;97871.34;;;14.31;38.44
45078;BME280;60508;42.622;25.416;2023-12-28T09:47:18;97866.09;;;14.53;38.68
45078;BME280;60508;42.622;25.416;2023-12-28T09:50:05;97867.38;;;14.79;37.91
45078;BME280;60508;42.622;25.416;2023-12-28T09:52:32;97872.47;;;14.75;37.66
45078;BME280;60508;42.622;25.416;2023-12-28T09:55:19;97856.06;;;14.82;37.36
45078;BME280;60508;42.622;25.416;2023-12-28T09:57:46;97855.19;;;14.93;37.31
45078;BME280;60508;42.622;25.416;2023-12-28T10:00:13;97851.75;;;15.15;37.51
45078;BME280;60508;42.622;25.416;2023-12-28T10:02:40;97852.91;;;15.19;36.80
45078;BME280;60508;42.622;25.416;2023-12-28T10:05:16;97831.88;;;15.43;37.02
45078;BME280;60508;42.622;25.416;2023-12-28T10:07:44;97832.72;;;15.66;36.02
45078;BME280;60508;42.622;25.416;2023-12-28T10:10:11;97826.47;;;15.82;35.73
45078;BME280;60508;42.622;25.416;2023-12-28T10:12:38;97821.00;;;15.99;35.73
45078;BME280;60508;42.622;25.416;2023-12-28T10:15:05;97823.44;;;16.23;34.65
45078;BME280;60508;42.622;25.416;2023-12-28T10:17:33;97821.88;;;16.32;35.32
45078;BME280;60508;42.622;25.416;2023-12-28T10:20:03;97819.56;;;16.41;34.84
45078;BME280;60508;42.622;25.416;2023-12-28T10:22:32;97824.59;;;16.59;34.62
45078;BME280;60508;42.622;25.416;2023-12-28T10:24:59;97808.88;;;16.89;34.38
45078;BME280;60508;42.622;25.416;2023-12-28T10:27:27;97801.13;;;17.03;33.63
45078;BME280;60508;42.622;25.416;2023-12-28T10:29:57;97798.78;;;17.17;33.31
45078;BME280;60508;42.622;25.416;2023-12-28T10:32:45;97786.31;;;17.21;32.83
45078;BME280;60508;42.622;25.416;2023-12-28T10:35:11;97788.66;;;17.44;32.46
45078;BME280;60508;42.622;25.416;2023-12-28T10:38:00;97782.59;;;17.32;32.71
45078;BME280;60508;42.622;25.416;2023-12-28T10:40:27;97770.75;;;17.53;32.70
45078;BME280;60508;42.622;25.416;2023-12-28T10:42:59;97765.66;;;17.67;32.45
45078;BME280;60508;42.622;25.416;2023-12-28T10:45:32;97762.91;;;17.57;32.91
45078;BME280;60508;42.622;25.416;2023-12-28T10:48:07;97767.88;;;17.81;32.71
45078;BME280;60508;42.622;25.416;2023-12-28T10:50:57;97759.81;;;18.01;32.44
45078;BME280;60508;42.622;25.416;2023-12-28T10:53:45;97756.28;;;18.01;33.23
45078;BME280;60508;42.622;25.416;2023-12-28T10:56:45;97758.66;;;17.87;32.80
45078;BME280;60508;42.622;25.416;2023-12-28T10:59:17;97751.66;;;17.96;32.47
45078;BME280;60508;42.622;25.416;2023-12-28T11:02:11;97750.34;;;18.24;32.01
45078;BME280;60508;42.622;25.416;2023-12-28T11:04:42;97744.09;;;18.34;32.14
45078;BME280;60508;42.622;25.416;2023-12-28T11:07:30;97735.44;;;18.42;32.09
45078;BME280;60508;42.622;25.416;2023-12-28T11:10:00;97730.81;;;18.74;31.62
45078;BME280;60508;42.622;25.416;2023-12-28T11:12:28;97724.25;;;18.80;30.97
45078;BME280;60508;42.622;25.416;2023-12-28T11:14:56;97731.63;;;18.90;30.80
45078;BME280;60508;42.622;25.416;2023-12-28T11:17:23;97716.38;;;18.89;31.63
45078;BME280;60508;42.622;25.416;2023-12-28T11:19:55;97719.91;;;18.84;30.95
45078;BME280;60508;42.622;25.416;2023-12-28T11:22:23;97720.75;;;18.85;31.45
45078;BME280;60508;42.622;25.416;2023-12-28T11:24:52;97709.59;;;18.91;31.24
45078;BME280;60508;42.622;25.416;2023-12-28T11:27:39;97700.50;;;19.32;31.01
45078;BME280;60508;42.622;25.416;2023-12-28T11:30:09;97698.84;;;19.31;31.24
45078;BME280;60508;42.622;25.416;2023-12-28T11:32:57;97695.38;;;19.10;30.98
45078;BME280;60508;42.622;25.416;2023-12-28T11:35:33;97698.34;;;19.19;31.30
45078;BME280;60508;42.622;25.416;2023-12-28T11:38:01;97690.94;;;19.34;30.00
45078;BME280;60508;42.622;25.416;2023-12-28T11:40:40;97688.88;;;18.90;30.79
45078;BME280;60508;42.622;25.416;2023-12-28T11:43:27;97697.03;;;18.95;30.73
45078;BME280;60508;42.622;25.416;2023-12-28T11:46:00;97682.75;;;19.34;31.20
45078;BME280;60508;42.622;25.416;2023-12-28T11:48:27;97682.38;;;19.62;30.19
45078;BME280;60508;42.622;25.416;2023-12-28T11:50:57;97674.88;;;19.33;30.16
45078;BME280;60508;42.622;25.416;2023-12-28T11:53:44;97677.50;;;19.53;29.78
45078;BME280;60508;42.622;25.416;2023-12-28T11:56:15;97679.75;;;19.36;29.82
45078;BME280;60508;42.622;25.416;2023-12-28T11:58:42;97686.69;;;19.03;30.29
45078;BME280;60508;42.622;25.416;2023-12-28T12:01:32;97680.59;;;19.37;30.28
45078;BME280;60508;42.622;25.416;2023-12-28T12:03:59;97679.19;;;19.39;30.01
45078;BME280;60508;42.622;25.416;2023-12-28T12:06:26;97683.69;;;18.94;30.97
45078;BME280;60508;42.622;25.416;2023-12-28T12:08:53;97675.50;;;19.09;29.97
45078;BME280;60508;42.622;25.416;2023-12-28T12:11:40;97674.19;;;18.91;29.95
45078;BME280;60508;42.622;25.416;2023-12-28T12:14:28;97667.38;;;18.63;30.41
45078;BME280;60508;42.622;25.416;2023-12-28T12:16:58;97675.00;;;18.35;30.09
45078;BME280;60508;42.622;25.416;2023-12-28T12:19:27;97669.25;;;17.91;31.37
45078;BME280;60508;42.622;25.416;2023-12-28T12:21:55;97666.47;;;17.70;31.35
45078;BME280;60508;42.622;25.416;2023-12-28T12:24:44;97662.34;;;17.57;30.89
45078;BME280;60508;42.622;25.416;2023-12-28T12:27:11;97657.13;;;17.40;31.10
45078;BME280;60508;42.622;25.416;2023-12-28T12:29:58;97651.44;;;16.89;31.97
45078;BME280;60508;42.622;25.416;2023-12-28T12:32:25;97652.44;;;16.83;32.04
45078;BME280;60508;42.622;25.416;2023-12-28T12:34:52;97656.19;;;16.71;31.94
45078;BME280;60508;42.622;25.416;2023-12-28T12:37:19;97647.44;;;16.59;31.96
45078;BME280;60508;42.622;25.416;2023-12-28T12:40:06;97652.47;;;16.45;31.53
45078;BME280;60508;42.622;25.416;2023-12-28T12:42:34;97652.94;;;16.32;31.67
45078;BME280;60508;42.622;25.416;2023-12-28T12:45:21;97648.34;;;16.05;31.79
45078;BME280;60508;42.622;25.416;2023-12-28T12:47:53;97643.72;;;16.00;32.24
45078;BME280;60508;42.622;25.416;2023-12-28T12:50:20;97642.19;;;15.82;32.68
45078;BME280;60508;42.622;25.416;2023-12-28T12:52:47;97642.88;;;15.73;33.18
45078;BME280;60508;42.622;25.416;2023-12-28T12:55:14;97640.56;;;15.59;33.45
45078;BME280;60508;42.622;25.416;2023-12-28T12:57:42;97643.78;;;15.56;33.66
45078;BME280;60508;42.622;25.416;2023-12-28T13:00:28;97624.31;;;15.59;33.67
45078;BME280;60508;42.622;25.416;2023-12-28T13:02:55;97626.88;;;15.44;33.93
45078;BME280;60508;42.622;25.416;2023-12-28T13:05:45;97630.34;;;15.39;34.01
45078;BME280;60508;42.622;25.416;2023-12-28T13:08:12;97622.91;;;15.29;34.30
45078;BME280;60508;42.622;25.416;2023-12-28T13:10:39;97632.91;;;15.29;34.63
45078;BME280;60508;42.622;25.416;2023-12-28T13:13:08;97621.53;;;15.27;34.42
45078;BME280;60508;42.622;25.416;2023-12-28T13:15:35;97623.38;;;15.21;34.65
45078;BME280;60508;42.622;25.416;2023-12-28T13:18:02;97618.81;;;15.27;34.60
45078;BME280;60508;42.622;25.416;2023-12-28T13:20:29;97616.66;;;15.29;35.01
45078;BME280;60508;42.622;25.416;2023-12-28T13:22:56;97623.97;;;15.28;34.99